Time,TemperatureF,DewpointF,PressureIn,WindDirection,WindDirectionDegrees,WindSpeedMPH,WindSpeedGustMPH,Humidity,HourlyPrecipIn,Conditions,Clouds,dailyrainin,SoftwareType,DateUTC
2013-12-24 00:01:00,44.6,16.5,30.22,NNW,338,0.4,3.4,32,0.00,,,0.00,WUHU216HW,2013-12-24 05:01:00,
2013-12-24 00:02:00,44.5,15.7,30.22,North,0,1.3,3.4,31,0.00,,,0.00,WUHU216HW,2013-12-24 05:02:00,
2013-12-24 00:03:00,44.5,15.7,30.22,North,0,1.3,3.4,31,0.00,,,0.00,WUHU216HW,2013-12-24 05:03:00,
2013-12-24 00:08:00,44.5,15.7,30.22,NNW,338,0.7,1.3,31,0.00,,,0.00,WUHU216HW,2013-12-24 05:08:00,
2013-12-24 00:13:00,44.3,16.1,30.22,NNW,338,2.5,2.5,32,0.00,,,0.00,WUHU216HW,2013-12-24 05:13:00,
2013-12-24 00:19:00,44.3,15.5,30.22,NW,315,1.1,2.5,31,0.00,,,0.00,WUHU216HW,2013-12-24 05:19:00,
2013-12-24 00:24:00,44.3,14.8,30.22,NNW,338,0.4,2.5,30,0.00,,,0.00,WUHU216HW,2013-12-24 05:24:00,
2013-12-24 00:29:00,43.9,15.1,30.22,NNE,15,2.0,2.5,31,0.00,,,0.00,WUHU216HW,2013-12-24 05:29:00,
2013-12-24 00:34:00,43.9,14.5,30.22,NNW,338,2.5,2.5,30,0.00,,,0.00,WUHU216HW,2013-12-24 05:34:00,
2013-12-24 00:39:00,43.7,14.3,30.22,North,0,2.5,2.5,30,0.00,,,0.00,WUHU216HW,2013-12-24 05:39:00,
2013-12-24 00:44:00,43.6,13.2,30.22,North,0,3.1,3.1,29,0.00,,,0.00,WUHU216HW,2013-12-24 05:44:00,
2013-12-24 00:49:00,43.2,11.2,30.22,WNW,293,2.5,3.1,27,0.00,,,0.00,WUHU216HW,2013-12-24 05:49:00,
2013-12-24 00:54:00,43.2,11.2,30.22,NW,307,1.1,3.1,27,0.00,,,0.00,WUHU216HW,2013-12-24 05:54:00,
2013-12-24 00:59:00,43.0,9.2,30.22,NNE,23,1.3,2.5,25,0.00,,,0.00,WUHU216HW,2013-12-24 05:59:00,
2013-12-24 01:04:00,42.8,8.1,30.22,NNE,23,2.0,2.0,24,0.00,,,0.00,WUHU216HW,2013-12-24 06:04:00,
2013-12-24 01:09:00,42.8,7.2,30.22,NE,45,1.1,2.0,23,0.00,,,0.00,WUHU216HW,2013-12-24 06:09:00,
2013-12-24 01:14:00,42.8,7.2,30.22,North,0,0.4,2.0,23,0.00,,,0.00,WUHU216HW,2013-12-24 06:14:00,
2013-12-24 01:19:00,42.8,6.3,30.22,NE,45,2.0,2.0,22,0.00,,,0.00,WUHU216HW,2013-12-24 06:19:00,
2013-12-24 01:24:00,42.8,5.4,30.22,NNW,338,1.8,2.0,21,0.00,,,0.00,WUHU216HW,2013-12-24 06:24:00,
2013-12-24 01:30:00,43.0,6.5,30.22,NE,45,1.8,2.0,22,0.00,,,0.00,WUHU216HW,2013-12-24 06:30:00,
2013-12-24 01:35:00,43.0,11.0,30.22,NE,45,2.5,2.5,27,0.00,,,0.00,WUHU216HW,2013-12-24 06:35:00,
2013-12-24 01:40:00,43.0,9.2,30.22,NNW,338,0.9,2.5,25,0.00,,,0.00,WUHU216HW,2013-12-24 06:40:00,
2013-12-24 01:45:00,43.0,7.4,30.21,NNE,22,2.3,2.5,23,0.00,,,0.00,WUHU216HW,2013-12-24 06:45:00,
2013-12-24 01:50:00,43.0,11.9,30.21,ENE,68,3.4,3.4,28,0.00,,,0.00,WUHU216HW,2013-12-24 06:50:00,
2013-12-24 01:55:00,43.0,14.3,30.21,NNE,23,3.8,3.8,31,0.00,,,0.00,WUHU216HW,2013-12-24 06:55:00,
2013-12-24 02:00:00,43.0,15.0,30.21,NNE,28,2.3,3.8,32,0.00,,,0.00,WUHU216HW,2013-12-24 07:00:00,
2013-12-24 02:05:00,43.2,15.9,30.21,NNW,338,1.3,3.8,33,0.00,,,0.00,WUHU216HW,2013-12-24 07:05:00,
2013-12-24 02:10:00,43.0,17.6,30.21,North,0,2.2,2.2,36,0.00,,,0.00,WUHU216HW,2013-12-24 07:10:00,
2013-12-24 02:15:00,43.0,19.0,30.21,NNE,23,4.9,4.9,38,0.00,,,0.00,WUHU216HW,2013-12-24 07:15:00,
2013-12-24 02:20:00,43.0,19.0,30.21,NNW,338,3.1,4.9,38,0.00,,,0.00,WUHU216HW,2013-12-24 07:20:00,
2013-12-24 02:25:00,42.8,18.8,30.21,NNW,338,2.8,3.1,38,0.00,,,0.00,WUHU216HW,2013-12-24 07:25:00,
2013-12-24 02:30:00,42.8,18.2,30.21,West,270,2.0,3.1,37,0.00,,,0.00,WUHU216HW,2013-12-24 07:30:00,
2013-12-24 02:36:00,42.8,18.8,30.21,NNE,23,2.7,2.7,38,0.00,,,0.00,WUHU216HW,2013-12-24 07:36:00,
2013-12-24 02:41:00,42.8,20.2,30.20,NNW,338,4.5,4.5,40,0.00,,,0.00,WUHU216HW,2013-12-24 07:41:00,
2013-12-24 02:46:00,42.5,19.2,30.21,North,0,0.7,4.5,39,0.00,,,0.00,WUHU216HW,2013-12-24 07:46:00,
2013-12-24 02:51:00,42.5,18.6,30.21,North,0,0.4,1.1,38,0.00,,,0.00,WUHU216HW,2013-12-24 07:51:00,
2013-12-24 02:56:00,42.1,18.2,30.21,North,0,1.1,1.1,38,0.00,,,0.00,WUHU216HW,2013-12-24 07:56:00,
2013-12-24 03:01:00,42.1,17.6,30.21,ENE,68,0.4,1.1,37,0.00,,,0.00,WUHU216HW,2013-12-24 08:01:00,
2013-12-24 03:06:00,41.9,16.8,30.22,NE,45,0.4,1.1,36,0.00,,,0.00,WUHU216HW,2013-12-24 08:06:00,
2013-12-24 03:11:00,42.1,16.2,30.22,North,0,0.0,0.4,35,0.00,,,0.00,WUHU216HW,2013-12-24 08:11:00,
2013-12-24 03:16:00,42.1,16.2,30.22,NNW,338,0.0,0.4,35,0.00,,,0.00,WUHU216HW,2013-12-24 08:16:00,
2013-12-24 03:21:00,42.1,15.0,30.22,North,0,0.2,0.2,33,0.00,,,0.00,WUHU216HW,2013-12-24 08:21:00,
2013-12-24 03:26:00,42.1,15.0,30.23,North,0,0.2,0.2,33,0.00,,,0.00,WUHU216HW,2013-12-24 08:26:00,
2013-12-24 03:31:00,42.1,16.2,30.23,North,0,2.0,2.0,35,0.00,,,0.00,WUHU216HW,2013-12-24 08:31:00,
2013-12-24 03:36:00,42.1,18.8,30.23,NNW,338,2.0,2.0,39,0.00,,,0.00,WUHU216HW,2013-12-24 08:36:00,
2013-12-24 03:41:00,42.1,16.9,30.23,North,0,3.1,3.1,36,0.00,,,0.00,WUHU216HW,2013-12-24 08:41:00,
2013-12-24 03:47:00,42.1,16.2,30.23,North,355,2.2,3.1,35,0.00,,,0.00,WUHU216HW,2013-12-24 08:47:00,
2013-12-24 03:52:00,42.1,16.9,30.23,North,0,1.1,3.1,36,0.00,,,0.00,WUHU216HW,2013-12-24 08:52:00,
2013-12-24 03:57:00,41.9,16.8,30.23,North,0,0.9,1.1,36,0.00,,,0.00,WUHU216HW,2013-12-24 08:57:00,
2013-12-24 04:02:00,41.8,15.9,30.23,NNE,23,0.9,1.1,35,0.00,,,0.00,WUHU216HW,2013-12-24 09:02:00,
2013-12-24 04:07:00,41.2,15.5,30.23,NW,315,0.0,0.9,35,0.00,,,0.00,WUHU216HW,2013-12-24 09:07:00,
2013-12-24 04:12:00,40.9,13.9,30.23,North,0,1.1,1.1,33,0.00,,,0.00,WUHU216HW,2013-12-24 09:12:00,
2013-12-24 04:17:00,40.5,13.5,30.23,NW,315,0.0,1.1,33,0.00,,,0.00,WUHU216HW,2013-12-24 09:17:00,
2013-12-24 04:22:00,40.0,12.4,30.23,NW,315,0.2,1.1,32,0.00,,,0.00,WUHU216HW,2013-12-24 09:22:00,
2013-12-24 04:27:00,39.6,11.4,30.23,NW,315,0.0,0.4,31,0.00,,,0.00,WUHU216HW,2013-12-24 09:27:00,
2013-12-24 04:32:00,39.4,9.7,30.23,NW,315,0.0,0.0,29,0.00,,,0.00,WUHU216HW,2013-12-24 09:32:00,
2013-12-24 04:37:00,39.1,7.6,30.24,NW,315,0.4,0.4,27,0.00,,,0.00,WUHU216HW,2013-12-24 09:37:00,
2013-12-24 04:42:00,38.9,5.7,30.23,NW,315,0.4,0.4,25,0.00,,,0.00,WUHU216HW,2013-12-24 09:42:00,
2013-12-24 04:47:00,38.5,5.3,30.23,NNW,338,0.0,0.4,25,0.00,,,0.00,WUHU216HW,2013-12-24 09:47:00,
2013-12-24 04:52:00,38.2,3.2,30.23,WNW,293,0.4,0.4,23,0.00,,,0.00,WUHU216HW,2013-12-24 09:52:00,
2013-12-24 04:58:00,38.0,3.1,30.23,NW,315,0.0,0.4,23,0.00,,,0.00,WUHU216HW,2013-12-24 09:58:00,
2013-12-24 05:03:00,37.4,1.8,30.23,NW,315,0.0,0.4,22,0.00,,,0.00,WUHU216HW,2013-12-24 10:03:00,
2013-12-24 05:08:00,37.1,0.6,30.23,North,0,0.4,0.4,21,0.00,,,0.00,WUHU216HW,2013-12-24 10:08:00,
2013-12-24 05:13:00,36.9,-0.4,30.23,West,270,0.4,0.4,20,0.00,,,0.00,WUHU216HW,2013-12-24 10:13:00,
2013-12-24 05:18:00,36.7,-0.5,30.24,NW,315,0.7,0.7,20,0.00,,,0.00,WUHU216HW,2013-12-24 10:18:00,
2013-12-24 05:23:00,36.9,-9.0,30.24,NNW,338,0.0,0.7,14,0.00,,,0.00,WUHU216HW,2013-12-24 10:23:00,
2013-12-24 05:28:00,36.7,-9.1,30.24,NW,315,0.9,0.9,14,0.00,,,0.00,WUHU216HW,2013-12-24 10:28:00,
2013-12-24 05:33:00,36.9,-11.8,30.24,NNW,338,1.1,1.1,12,0.00,,,0.00,WUHU216HW,2013-12-24 10:33:00,
2013-12-24 05:38:00,37.1,-5.9,30.24,NW,315,0.8,1.3,16,0.00,,,0.00,WUHU216HW,2013-12-24 10:38:00,
2013-12-24 05:44:00,36.9,-3.2,30.24,NW,315,0.0,1.3,18,0.00,,,0.00,WUHU216HW,2013-12-24 10:44:00,
2013-12-24 05:49:00,36.7,-0.5,30.24,NW,315,0.4,0.4,20,0.00,,,0.00,WUHU216HW,2013-12-24 10:49:00,
2013-12-24 05:54:00,36.4,0.9,30.24,NNW,338,0.9,0.9,22,0.00,,,0.00,WUHU216HW,2013-12-24 10:54:00,
2013-12-24 05:59:00,36.2,1.6,30.25,NNW,338,0.3,0.9,23,0.00,,,0.00,WUHU216HW,2013-12-24 10:59:00,
2013-12-24 06:04:00,35.8,1.3,30.25,NW,315,0.4,0.4,23,0.00,,,0.00,WUHU216HW,2013-12-24 11:04:00,
2013-12-24 06:09:00,35.6,1.2,30.25,NNW,338,0.4,0.4,23,0.00,,,0.00,WUHU216HW,2013-12-24 11:09:00,
2013-12-24 06:14:00,35.5,1.9,30.26,WNW,293,1.6,1.6,24,0.00,,,0.00,WUHU216HW,2013-12-24 11:14:00,
2013-12-24 06:19:00,35.5,1.9,30.26,NW,315,1.1,1.6,24,0.00,,,0.00,WUHU216HW,2013-12-24 11:19:00,
2013-12-24 06:24:00,35.5,2.7,30.27,NW,315,1.3,1.6,25,0.00,,,0.00,WUHU216HW,2013-12-24 11:24:00,
2013-12-24 06:29:00,35.6,4.6,30.27,NW,315,2.2,2.2,27,0.00,,,0.00,WUHU216HW,2013-12-24 11:29:00,
2013-12-24 06:34:00,35.6,6.3,30.27,NW,315,0.9,2.2,29,0.00,,,0.00,WUHU216HW,2013-12-24 11:34:00,
2013-12-24 06:39:00,35.5,6.2,30.26,North,0,1.1,2.2,29,0.00,,,0.00,WUHU216HW,2013-12-24 11:39:00,
2013-12-24 06:44:00,35.1,6.8,30.26,NNE,23,0.7,1.1,30,0.00,,,0.00,WUHU216HW,2013-12-24 11:44:00,
2013-12-24 06:49:00,34.9,6.7,30.27,NNW,332,0.5,1.1,30,0.00,,,0.00,WUHU216HW,2013-12-24 11:49:00,
2013-12-24 06:54:00,34.6,5.5,30.27,NW,315,0.0,1.1,29,0.00,,,0.00,WUHU216HW,2013-12-24 11:54:00,
2013-12-24 07:00:00,34.4,5.3,30.26,NNE,23,0.9,0.9,29,0.00,,,0.00,WUHU216HW,2013-12-24 12:00:00,
2013-12-24 07:05:00,34.0,3.2,30.26,ENE,68,0.0,1.1,27,0.00,,,0.00,WUHU216HW,2013-12-24 12:05:00,
2013-12-24 07:10:00,33.7,2.1,30.27,NNW,338,0.6,1.1,26,0.00,,,0.00,WUHU216HW,2013-12-24 12:10:00,
2013-12-24 07:15:00,33.5,1.1,30.27,North,0,0.7,0.7,25,0.00,,,0.00,WUHU216HW,2013-12-24 12:15:00,
2013-12-24 07:20:00,33.3,0.0,30.27,NNE,23,0.9,0.9,24,0.00,,,0.00,WUHU216HW,2013-12-24 12:20:00,
2013-12-24 07:25:00,33.1,-1.0,30.28,NE,45,0.7,0.9,23,0.00,,,0.00,WUHU216HW,2013-12-24 12:25:00,
2013-12-24 07:30:00,33.1,-1.9,30.27,NNE,23,1.1,1.1,22,0.00,,,0.00,WUHU216HW,2013-12-24 12:30:00,
2013-12-24 07:35:00,32.9,-2.1,30.28,NNE,14,0.5,1.6,22,0.00,,,0.00,WUHU216HW,2013-12-24 12:35:00,
2013-12-24 07:40:00,32.8,-2.1,30.28,North,0,0.2,1.6,22,0.00,,,0.00,WUHU216HW,2013-12-24 12:40:00,
2013-12-24 07:45:00,32.8,-3.1,30.28,North,0,0.0,0.2,21,0.00,,,0.00,WUHU216HW,2013-12-24 12:45:00,
2013-12-24 07:50:00,32.6,-4.0,30.28,NNE,23,0.2,0.2,20,0.00,,,0.00,WUHU216HW,2013-12-24 12:50:00,
2013-12-24 07:55:00,32.8,-6.7,30.28,NE,45,0.2,0.2,18,0.00,,,0.00,WUHU216HW,2013-12-24 12:55:00,
2013-12-24 08:00:00,32.8,-6.7,30.28,NNE,23,0.4,0.4,18,0.00,,,0.00,WUHU216HW,2013-12-24 13:00:00,
2013-12-24 08:05:00,32.8,-6.7,30.28,North,0,0.0,0.4,18,0.00,,,0.00,WUHU216HW,2013-12-24 13:05:00,
2013-12-24 08:11:00,32.9,-7.9,30.29,North,0,0.4,0.4,17,0.00,,,0.00,WUHU216HW,2013-12-24 13:11:00,
2013-12-24 08:16:00,33.3,-7.6,30.29,NW,315,0.4,0.4,17,0.00,,,0.00,WUHU216HW,2013-12-24 13:16:00,
2013-12-24 08:21:00,33.7,-8.8,30.29,NNE,23,1.1,1.1,16,0.00,,,0.00,WUHU216HW,2013-12-24 13:21:00,
2013-12-24 08:26:00,34.0,-8.5,30.29,ENE,68,1.3,1.3,16,0.00,,,0.00,WUHU216HW,2013-12-24 13:26:00,
2013-12-24 08:31:00,34.4,-8.2,30.29,NW,315,1.3,1.3,16,0.00,,,0.00,WUHU216HW,2013-12-24 13:31:00,
2013-12-24 08:36:00,34.9,-6.3,30.30,North,0,1.3,1.3,17,0.00,,,0.00,WUHU216HW,2013-12-24 13:36:00,
2013-12-24 08:41:00,35.3,-6.0,30.30,NNW,338,0.9,1.3,17,0.00,,,0.00,WUHU216HW,2013-12-24 13:41:00,
2013-12-24 08:46:00,35.6,-5.7,30.30,North,0,1.3,1.3,17,0.00,,,0.00,WUHU216HW,2013-12-24 13:46:00,
2013-12-24 08:51:00,35.8,-4.1,30.30,North,0,0.7,1.3,18,0.00,,,0.00,WUHU216HW,2013-12-24 13:51:00,
2013-12-24 08:56:00,36.4,0.0,30.30,NE,45,1.1,1.3,21,0.00,,,0.00,WUHU216HW,2013-12-24 13:56:00,
2013-12-24 09:01:00,36.4,7.8,30.30,NE,45,2.0,2.0,30,0.00,,,0.00,WUHU216HW,2013-12-24 14:01:00,
2013-12-24 09:06:00,37.1,9.2,30.30,NNE,21,3.1,3.6,31,0.00,,,0.00,WUHU216HW,2013-12-24 14:06:00,
2013-12-24 09:11:00,37.3,10.0,30.30,North,0,3.8,3.8,32,0.00,,,0.00,WUHU216HW,2013-12-24 14:11:00,
2013-12-24 09:17:00,37.8,15.7,30.30,NNW,338,3.4,3.8,40,0.00,,,0.00,WUHU216HW,2013-12-24 14:17:00,
2013-12-24 09:22:00,38.2,18.0,30.30,NNE,18,3.0,3.8,44,0.00,,,0.00,WUHU216HW,2013-12-24 14:22:00,
2013-12-24 09:27:00,38.3,18.2,30.30,NNW,338,2.5,3.4,44,0.00,,,0.00,WUHU216HW,2013-12-24 14:27:00,
2013-12-24 09:32:00,38.7,16.5,30.31,NNW,343,0.8,2.9,40,0.00,,,0.00,WUHU216HW,2013-12-24 14:32:00,
2013-12-24 09:37:00,39.2,19.5,30.32,NNW,338,3.4,3.4,45,0.00,,,0.00,WUHU216HW,2013-12-24 14:37:00,
2013-12-24 09:42:00,39.4,19.7,30.31,NE,45,2.5,3.4,45,0.00,,,0.00,WUHU216HW,2013-12-24 14:42:00,
2013-12-24 09:47:00,39.8,21.1,30.32,North,0,2.7,3.4,47,0.00,,,0.00,WUHU216HW,2013-12-24 14:47:00,
2013-12-24 09:52:00,40.3,24.0,30.32,NE,36,1.5,2.7,52,0.00,,,0.00,WUHU216HW,2013-12-24 14:52:00,
2013-12-24 09:57:00,40.7,23.4,30.32,WSW,248,4.0,4.0,50,0.00,,,0.00,WUHU216HW,2013-12-24 14:57:00,
2013-12-24 10:02:00,40.7,24.8,30.32,NW,315,2.7,4.0,53,0.00,,,0.00,WUHU216HW,2013-12-24 15:02:00,
2013-12-24 10:07:00,40.9,24.9,30.32,NNW,338,1.1,4.0,53,0.00,,,0.00,WUHU216HW,2013-12-24 15:07:00,
2013-12-24 10:12:00,41.6,25.7,30.33,NW,315,1.1,2.7,53,0.00,,,0.00,WUHU216HW,2013-12-24 15:12:00,
2013-12-24 10:17:00,41.8,25.8,30.33,West,270,3.6,3.6,53,0.00,,,0.00,WUHU216HW,2013-12-24 15:17:00,
2013-12-24 10:22:00,42.1,25.3,30.33,NW,315,1.1,3.6,51,0.00,,,0.00,WUHU216HW,2013-12-24 15:22:00,
2013-12-24 10:28:00,42.1,27.0,30.33,North,0,5.4,5.4,55,0.00,,,0.00,WUHU216HW,2013-12-24 15:28:00,
2013-12-24 10:33:00,42.3,27.2,30.33,NW,315,3.8,5.4,55,0.00,,,0.00,WUHU216HW,2013-12-24 15:33:00,
2013-12-24 10:38:00,42.5,27.8,30.33,NNW,338,1.6,5.4,56,0.00,,,0.00,WUHU216HW,2013-12-24 15:38:00,
2013-12-24 10:43:00,42.8,28.2,30.33,WNW,293,0.7,3.8,56,0.00,,,0.00,WUHU216HW,2013-12-24 15:43:00,
2013-12-24 10:48:00,43.0,28.4,30.34,NW,315,3.1,3.1,56,0.00,,,0.00,WUHU216HW,2013-12-24 15:48:00,
2013-12-24 10:53:00,43.6,28.8,30.34,NW,310,3.0,3.1,56,0.00,,,0.00,WUHU216HW,2013-12-24 15:53:00,
2013-12-24 10:58:00,43.9,29.6,30.34,NNW,338,3.6,3.6,57,0.00,,,0.00,WUHU216HW,2013-12-24 15:58:00,
2013-12-24 11:03:00,44.1,29.8,30.33,NNW,338,5.4,5.4,57,0.00,,,0.00,WUHU216HW,2013-12-24 16:03:00,
2013-12-24 11:08:00,44.3,29.5,30.33,NNW,338,4.0,5.4,56,0.00,,,0.00,WUHU216HW,2013-12-24 16:08:00,
2013-12-24 11:13:00,45.0,30.7,30.33,East,90,1.1,5.4,57,0.00,,,0.00,WUHU216HW,2013-12-24 16:13:00,
2013-12-24 11:18:00,45.2,29.9,30.33,West,270,4.0,4.0,55,0.00,,,0.00,WUHU216HW,2013-12-24 16:18:00,
2013-12-24 11:23:00,44.8,29.2,30.33,North,0,5.4,5.4,54,0.00,,,0.00,WUHU216HW,2013-12-24 16:23:00,
2013-12-24 11:28:00,45.0,30.3,30.33,NNE,23,2.5,5.4,56,0.00,,,0.00,WUHU216HW,2013-12-24 16:28:00,
2013-12-24 11:34:00,45.4,30.1,30.33,NW,315,2.0,5.4,55,0.00,,,0.00,WUHU216HW,2013-12-24 16:34:00,
2013-12-24 11:39:00,45.2,29.9,30.33,NNW,342,2.3,5.1,55,0.00,,,0.00,WUHU216HW,2013-12-24 16:39:00,
2013-12-24 11:44:00,45.4,28.7,30.32,NNE,23,5.4,6.3,52,0.00,,,0.00,WUHU216HW,2013-12-24 16:44:00,
2013-12-24 11:49:00,45.4,29.2,30.32,North,0,4.0,6.3,53,0.00,,,0.00,WUHU216HW,2013-12-24 16:49:00,
2013-12-24 11:54:00,45.5,29.3,30.33,North,0,1.1,5.4,53,0.00,,,0.00,WUHU216HW,2013-12-24 16:54:00,
2013-12-24 11:59:00,45.9,28.8,30.32,NW,322,3.1,4.0,51,0.00,,,0.00,WUHU216HW,2013-12-24 16:59:00,
2013-12-24 12:04:00,46.1,28.4,30.32,WNW,293,4.7,4.7,50,0.00,,,0.00,WUHU216HW,2013-12-24 17:04:00,
2013-12-24 12:09:00,46.3,28.6,30.33,NNE,23,3.6,4.7,50,0.00,,,0.00,WUHU216HW,2013-12-24 17:09:00,
2013-12-24 12:14:00,45.9,26.2,30.32,NW,320,7.1,7.2,46,0.00,,,0.00,WUHU216HW,2013-12-24 17:14:00,
2013-12-24 12:19:00,46.1,26.8,30.32,NNW,332,4.9,7.2,47,0.00,,,0.00,WUHU216HW,2013-12-24 17:19:00,
2013-12-24 12:24:00,45.9,26.7,30.32,NNW,334,3.7,6.5,47,0.00,,,0.00,WUHU216HW,2013-12-24 17:24:00,
2013-12-24 12:29:00,45.7,27.1,30.32,North,0,6.0,6.0,48,0.00,,,0.00,WUHU216HW,2013-12-24 17:29:00,
2013-12-24 12:34:00,45.9,27.3,30.32,NW,315,5.4,6.0,48,0.00,,,0.00,WUHU216HW,2013-12-24 17:34:00,
2013-12-24 12:40:00,45.4,25.7,30.32,NNW,339,7.5,8.1,46,0.00,,,0.00,WUHU216HW,2013-12-24 17:40:00,
2013-12-24 12:45:00,45.4,27.3,30.32,NNW,338,4.0,8.1,49,0.00,,,0.00,WUHU216HW,2013-12-24 17:45:00,
2013-12-24 12:50:00,45.5,25.8,30.32,NW,315,6.0,6.0,46,0.00,,,0.00,WUHU216HW,2013-12-24 17:50:00,
2013-12-24 12:55:00,45.4,26.7,30.32,North,0,6.3,6.3,48,0.00,,,0.00,WUHU216HW,2013-12-24 17:55:00,
2013-12-24 13:00:00,45.0,24.9,30.31,WNW,293,9.6,9.6,45,0.00,,,0.00,WUHU216HW,2013-12-24 18:00:00,
2013-12-24 13:05:00,44.8,25.2,30.31,NNW,333,6.9,9.6,46,0.00,,,0.00,WUHU216HW,2013-12-24 18:05:00,
2013-12-24 13:10:00,44.6,23.9,30.31,NNW,338,4.3,9.6,44,0.00,,,0.00,WUHU216HW,2013-12-24 18:10:00,
2013-12-24 13:15:00,44.6,25.0,30.31,NNW,338,4.9,5.6,46,0.00,,,0.00,WUHU216HW,2013-12-24 18:15:00,
2013-12-24 13:20:00,45.0,24.9,30.31,NNW,338,6.0,6.0,45,0.00,,,0.00,WUHU216HW,2013-12-24 18:20:00,
2013-12-24 13:25:00,45.2,24.9,30.31,NNW,338,5.4,6.0,45,0.00,,,0.00,WUHU216HW,2013-12-24 18:25:00,
2013-12-24 13:30:00,45.4,24.6,30.31,NNW,338,2.9,6.0,44,0.00,,,0.00,WUHU216HW,2013-12-24 18:30:00,
2013-12-24 13:35:00,45.9,23.5,30.31,NNW,338,5.1,5.4,41,0.00,,,0.00,WUHU216HW,2013-12-24 18:35:00,
2013-12-24 13:41:00,46.3,21.9,30.31,North,0,4.0,5.1,38,0.00,,,0.00,WUHU216HW,2013-12-24 18:41:00,
2013-12-24 13:46:00,46.3,21.9,30.32,NNW,338,4.0,5.1,38,0.00,,,0.00,WUHU216HW,2013-12-24 18:46:00,
2013-12-24 13:51:00,46.4,21.4,30.32,NNW,338,7.6,8.9,37,0.00,,,0.00,WUHU216HW,2013-12-24 18:51:00,
2013-12-24 13:56:00,44.8,20.0,30.32,NW,308,7.1,13.4,37,0.00,,,0.00,WUHU216HW,2013-12-24 18:56:00,
2013-12-24 14:01:00,44.6,19.8,30.32,NNW,338,6.7,13.4,37,0.00,,,0.00,WUHU216HW,2013-12-24 19:01:00,
2013-12-24 14:06:00,44.6,20.4,30.32,NW,315,5.6,6.7,38,0.00,,,0.00,WUHU216HW,2013-12-24 19:06:00,
2013-12-24 14:11:00,44.5,19.6,30.31,North,353,7.7,7.8,37,0.00,,,0.00,WUHU216HW,2013-12-24 19:11:00,
2013-12-24 14:16:00,44.3,20.2,30.32,NE,39,8.0,8.3,38,0.00,,,0.00,WUHU216HW,2013-12-24 19:16:00,
2013-12-24 14:21:00,43.9,20.4,30.32,NNW,338,6.9,8.3,39,0.00,,,0.00,WUHU216HW,2013-12-24 19:21:00,
2013-12-24 14:26:00,44.1,20.0,30.33,WNW,297,6.2,6.9,38,0.00,,,0.00,WUHU216HW,2013-12-24 19:26:00,
2013-12-24 14:31:00,43.7,19.6,30.33,WSW,248,6.3,6.9,38,0.00,,,0.00,WUHU216HW,2013-12-24 19:31:00,
2013-12-24 14:36:00,43.6,19.4,30.33,WNW,297,4.3,6.3,38,0.00,,,0.00,WUHU216HW,2013-12-24 19:36:00,
2013-12-24 14:41:00,43.7,19.6,30.33,North,0,2.9,6.3,38,0.00,,,0.00,WUHU216HW,2013-12-24 19:41:00,
2013-12-24 14:46:00,43.6,17.5,30.33,NNW,338,5.4,5.4,35,0.00,,,0.00,WUHU216HW,2013-12-24 19:46:00,
2013-12-24 14:52:00,43.6,18.8,30.33,ESE,113,3.4,5.4,37,0.00,,,0.00,WUHU216HW,2013-12-24 19:52:00,
2013-12-24 14:57:00,43.6,18.8,30.33,ENE,66,8.0,8.1,37,0.00,,,0.00,WUHU216HW,2013-12-24 19:57:00,
2013-12-24 15:02:00,43.0,18.4,30.32,WSW,248,7.2,8.1,37,0.00,,,0.00,WUHU216HW,2013-12-24 20:02:00,
2013-12-24 15:07:00,42.8,17.5,30.32,NW,315,8.1,8.1,36,0.00,,,0.00,WUHU216HW,2013-12-24 20:07:00,
2013-12-24 15:12:00,42.7,17.4,30.33,NNW,338,8.3,8.3,36,0.00,,,0.00,WUHU216HW,2013-12-24 20:12:00,
2013-12-24 15:17:00,42.5,18.6,30.33,NW,315,4.5,8.3,38,0.00,,,0.00,WUHU216HW,2013-12-24 20:17:00,
2013-12-24 15:22:00,42.8,18.8,30.33,NW,315,6.9,8.3,38,0.00,,,0.00,WUHU216HW,2013-12-24 20:22:00,
2013-12-24 15:27:00,42.8,19.5,30.34,East,90,2.5,6.9,39,0.00,,,0.00,WUHU216HW,2013-12-24 20:27:00,
2013-12-24 15:32:00,43.0,19.0,30.33,NNW,338,8.7,8.7,38,0.00,,,0.00,WUHU216HW,2013-12-24 20:32:00,
2013-12-24 15:37:00,42.8,19.5,30.33,North,349,6.7,8.7,39,0.00,,,0.00,WUHU216HW,2013-12-24 20:37:00,
2013-12-24 15:42:00,42.7,18.6,30.33,North,4,5.2,7.8,38,0.00,,,0.00,WUHU216HW,2013-12-24 20:42:00,
2013-12-24 15:47:00,42.5,17.8,30.34,NE,45,8.1,8.1,37,0.00,,,0.00,WUHU216HW,2013-12-24 20:47:00,
2013-12-24 15:52:00,42.1,18.2,30.34,East,90,8.1,8.1,38,0.00,,,0.00,WUHU216HW,2013-12-24 20:52:00,
2013-12-24 15:57:00,42.1,17.6,30.34,North,0,9.6,9.6,37,0.00,,,0.00,WUHU216HW,2013-12-24 20:57:00,
2013-12-24 16:02:00,41.9,18.7,30.35,NNW,338,4.5,9.6,39,0.00,,,0.00,WUHU216HW,2013-12-24 21:02:00,
2013-12-24 16:08:00,41.9,18.7,30.35,NW,315,4.5,4.5,39,0.00,,,0.00,WUHU216HW,2013-12-24 21:08:00,
2013-12-24 16:13:00,41.9,19.9,30.35,NW,315,4.7,4.7,41,0.00,,,0.00,WUHU216HW,2013-12-24 21:13:00,
2013-12-24 16:18:00,41.8,19.2,30.35,NNW,338,4.9,4.9,40,0.00,,,0.00,WUHU216HW,2013-12-24 21:18:00,
2013-12-24 16:23:00,41.6,19.5,30.35,North,0,2.7,4.9,41,0.00,,,0.00,WUHU216HW,2013-12-24 21:23:00,
2013-12-24 16:28:00,41.4,19.4,30.35,NNW,338,4.7,4.9,41,0.00,,,0.00,WUHU216HW,2013-12-24 21:28:00,
2013-12-24 16:33:00,41.4,18.9,30.35,North,0,4.3,4.9,40,0.00,,,0.00,WUHU216HW,2013-12-24 21:33:00,
2013-12-24 16:38:00,41.2,19.7,30.36,North,0,3.1,4.7,42,0.00,,,0.00,WUHU216HW,2013-12-24 21:38:00,
2013-12-24 16:43:00,40.9,18.4,30.36,ENE,68,5.6,5.6,40,0.00,,,0.00,WUHU216HW,2013-12-24 21:43:00,
2013-12-24 16:48:00,40.7,19.3,30.36,North,0,1.1,5.6,42,0.00,,,0.00,WUHU216HW,2013-12-24 21:48:00,
2013-12-24 16:53:00,40.1,18.8,30.36,NNW,338,5.6,5.6,42,0.00,,,0.00,WUHU216HW,2013-12-24 21:53:00,
2013-12-24 16:58:00,40.1,18.8,30.36,NNW,338,5.6,5.6,42,0.00,,,0.00,WUHU216HW,2013-12-24 21:58:00,
2013-12-24 17:03:00,39.2,17.5,30.36,NNW,332,4.8,5.6,41,0.00,,,0.00,WUHU216HW,2013-12-24 22:03:00,
2013-12-24 17:08:00,38.9,17.6,30.36,NNW,337,3.0,5.6,42,0.00,,,0.00,WUHU216HW,2013-12-24 22:08:00,
2013-12-24 17:13:00,38.5,17.3,30.37,NNE,23,4.7,4.7,42,0.00,,,0.00,WUHU216HW,2013-12-24 22:13:00,
2013-12-24 17:19:00,38.3,16.7,30.37,North,0,5.6,5.6,41,0.00,,,0.00,WUHU216HW,2013-12-24 22:19:00,
2013-12-24 17:24:00,38.0,16.3,30.37,North,0,4.0,5.6,41,0.00,,,0.00,WUHU216HW,2013-12-24 22:24:00,
2013-12-24 17:29:00,37.6,17.0,30.37,NNW,338,3.8,7.6,43,0.00,,,0.00,WUHU216HW,2013-12-24 22:29:00,
2013-12-24 17:34:00,37.3,16.2,30.38,North,0,1.8,7.6,42,0.00,,,0.00,WUHU216HW,2013-12-24 22:34:00,
2013-12-24 17:39:00,37.1,16.6,30.38,NNE,23,4.0,4.0,43,0.00,,,0.00,WUHU216HW,2013-12-24 22:39:00,
2013-12-24 17:44:00,36.9,16.4,30.38,NW,315,3.8,4.0,43,0.00,,,0.00,WUHU216HW,2013-12-24 22:44:00,
2013-12-24 17:49:00,36.7,16.7,30.38,NW,315,5.6,5.6,44,0.00,,,0.00,WUHU216HW,2013-12-24 22:49:00,
2013-12-24 17:54:00,36.4,16.4,30.39,North,352,4.6,6.3,44,0.00,,,0.00,WUHU216HW,2013-12-24 22:54:00,
2013-12-24 17:59:00,36.2,16.7,30.39,North,0,2.7,6.3,45,0.00,,,0.00,WUHU216HW,2013-12-24 22:59:00,
2013-12-24 18:04:00,36.0,16.7,30.38,NNW,332,1.7,2.7,45,0.00,,,0.00,WUHU216HW,2013-12-24 23:04:00,
2013-12-24 18:09:00,35.6,16.3,30.39,WNW,293,3.4,3.4,45,0.00,,,0.00,WUHU216HW,2013-12-24 23:09:00,
2013-12-24 18:14:00,35.6,16.3,30.39,North,0,4.3,4.3,45,0.00,,,0.00,WUHU216HW,2013-12-24 23:14:00,
2013-12-24 18:19:00,35.5,16.7,30.38,North,0,1.3,4.3,46,0.00,,,0.00,WUHU216HW,2013-12-24 23:19:00,
2013-12-24 18:25:00,35.1,16.8,30.39,North,5,4.8,5.6,47,0.00,,,0.00,WUHU216HW,2013-12-24 23:25:00,
2013-12-24 18:30:00,35.1,16.8,30.39,ENE,68,1.1,5.6,47,0.00,,,0.00,WUHU216HW,2013-12-24 23:30:00,
2013-12-24 18:35:00,34.9,16.7,30.39,NW,315,3.4,3.4,47,0.00,,,0.00,WUHU216HW,2013-12-24 23:35:00,
2013-12-24 18:40:00,34.6,16.3,30.39,North,0,7.2,7.2,47,0.00,,,0.00,WUHU216HW,2013-12-24 23:40:00,
2013-12-24 18:45:00,34.4,16.7,30.39,North,352,3.3,7.2,48,0.00,,,0.00,WUHU216HW,2013-12-24 23:45:00,
2013-12-24 18:50:00,34.2,16.5,30.39,West,270,3.1,7.2,48,0.00,,,0.00,WUHU216HW,2013-12-24 23:50:00,
2013-12-24 18:55:00,33.8,16.6,30.40,North,0,4.0,4.0,49,0.00,,,0.00,WUHU216HW,2013-12-24 23:55:00,
2013-12-24 19:00:00,33.7,16.9,30.40,North,359,3.8,4.0,50,0.00,,,0.00,WUHU216HW,2013-12-25 00:00:00,
2013-12-24 19:05:00,33.5,16.7,30.40,NNE,23,3.8,4.0,50,0.00,,,0.00,WUHU216HW,2013-12-25 00:05:00,
2013-12-24 19:10:00,33.5,16.7,30.40,NNE,23,3.8,3.8,50,0.00,,,0.00,WUHU216HW,2013-12-25 00:10:00,
2013-12-24 19:15:00,33.1,16.9,30.40,North,356,3.0,3.8,51,0.00,,,0.00,WUHU216HW,2013-12-25 00:15:00,
2013-12-24 19:20:00,33.1,16.9,30.40,NNE,23,1.8,3.8,51,0.00,,,0.00,WUHU216HW,2013-12-25 00:20:00,
2013-12-24 19:25:00,32.9,17.2,30.40,NE,45,1.8,2.7,52,0.00,,,0.00,WUHU216HW,2013-12-25 00:25:00,
2013-12-24 19:31:00,32.8,17.0,30.40,NNE,23,2.7,2.7,52,0.00,,,0.00,WUHU216HW,2013-12-25 00:31:00,
2013-12-24 19:36:00,32.6,17.3,30.41,NNW,338,1.8,2.7,53,0.00,,,0.00,WUHU216HW,2013-12-25 00:36:00,
2013-12-24 19:41:00,32.6,17.3,30.41,NNW,338,1.8,2.7,53,0.00,,,0.00,WUHU216HW,2013-12-25 00:41:00,
2013-12-24 19:46:00,32.4,17.1,30.41,NNW,338,3.6,3.6,53,0.00,,,0.00,WUHU216HW,2013-12-25 00:46:00,
2013-12-24 19:51:00,32.2,17.4,30.41,NNW,338,1.6,3.6,54,0.00,,,0.00,WUHU216HW,2013-12-25 00:51:00,
2013-12-24 19:56:00,32.0,16.7,30.41,North,353,0.7,3.6,53,0.00,,,0.00,WUHU216HW,2013-12-25 00:56:00,
2013-12-24 20:01:00,31.9,17.0,30.41,North,0,1.8,1.8,54,0.00,,,0.00,WUHU216HW,2013-12-25 01:01:00,
2013-12-24 20:06:00,31.7,16.8,30.42,NE,45,1.6,1.8,54,0.00,,,0.00,WUHU216HW,2013-12-25 01:06:00,
2013-12-24 20:11:00,31.3,16.6,30.42,NW,315,0.4,1.8,54,0.00,,,0.00,WUHU216HW,2013-12-25 01:11:00,
2013-12-24 20:16:00,31.1,16.8,30.42,North,0,0.9,1.6,55,0.00,,,0.00,WUHU216HW,2013-12-25 01:16:00,
2013-12-24 20:21:00,30.6,16.3,30.42,North,0,0.4,0.9,55,0.00,,,0.00,WUHU216HW,2013-12-25 01:21:00,
2013-12-24 20:26:00,30.6,16.7,30.42,NW,324,1.4,1.6,56,0.00,,,0.00,WUHU216HW,2013-12-25 01:26:00,
2013-12-24 20:31:00,30.6,16.7,30.43,NE,45,4.0,4.0,56,0.00,,,0.00,WUHU216HW,2013-12-25 01:31:00,
2013-12-24 20:36:00,31.0,17.0,30.42,North,0,1.1,4.0,56,0.00,,,0.00,WUHU216HW,2013-12-25 01:36:00,
2013-12-24 20:42:00,31.0,17.5,30.42,NE,45,1.6,4.0,57,0.00,,,0.00,WUHU216HW,2013-12-25 01:42:00,
2013-12-24 20:47:00,31.0,17.5,30.42,NNW,338,0.4,1.6,57,0.00,,,0.00,WUHU216HW,2013-12-25 01:47:00,
2013-12-24 20:52:00,30.6,17.1,30.42,North,0,2.5,2.5,57,0.00,,,0.00,WUHU216HW,2013-12-25 01:52:00,
2013-12-24 20:57:00,30.6,17.1,30.43,NNW,348,1.9,2.5,57,0.00,,,0.00,WUHU216HW,2013-12-25 01:57:00,
2013-12-24 21:02:00,30.4,16.9,30.42,North,0,1.8,2.5,57,0.00,,,0.00,WUHU216HW,2013-12-25 02:02:00,
2013-12-24 21:07:00,30.1,17.0,30.43,NNW,338,1.1,1.8,58,0.00,,,0.00,WUHU216HW,2013-12-25 02:07:00,
2013-12-24 21:12:00,29.9,16.8,30.43,NNW,348,0.8,1.1,58,0.00,,,0.00,WUHU216HW,2013-12-25 02:12:00,
2013-12-24 21:17:00,29.9,16.8,30.42,NW,315,1.6,1.6,58,0.00,,,0.00,WUHU216HW,2013-12-25 02:17:00,
2013-12-24 21:22:00,29.5,16.6,30.43,NE,45,0.4,1.6,58,0.00,,,0.00,WUHU216HW,2013-12-25 02:22:00,
2013-12-24 21:27:00,29.5,16.6,30.42,NE,39,1.5,1.8,58,0.00,,,0.00,WUHU216HW,2013-12-25 02:27:00,
2013-12-24 21:32:00,29.3,16.7,30.42,West,270,2.5,2.5,59,0.00,,,0.00,WUHU216HW,2013-12-25 02:32:00,
2013-12-24 21:37:00,29.2,16.7,30.43,NE,45,0.7,2.5,59,0.00,,,0.00,WUHU216HW,2013-12-25 02:37:00,
2013-12-24 21:42:00,29.2,16.7,30.43,East,90,0.4,2.5,59,0.00,,,0.00,WUHU216HW,2013-12-25 02:42:00,
2013-12-24 21:48:00,29.0,16.5,30.43,North,0,1.1,1.1,59,0.00,,,0.00,WUHU216HW,2013-12-25 02:48:00,
2013-12-24 21:53:00,29.0,16.5,30.43,NE,38,1.3,1.6,59,0.00,,,0.00,WUHU216HW,2013-12-25 02:53:00,
2013-12-24 21:58:00,29.0,16.5,30.42,West,270,0.2,1.6,59,0.00,,,0.00,WUHU216HW,2013-12-25 02:58:00,
2013-12-24 22:03:00,28.8,16.3,30.43,NNE,23,2.2,2.2,59,0.00,,,0.00,WUHU216HW,2013-12-25 03:03:00,
2013-12-24 22:08:00,28.8,16.8,30.43,NNW,338,0.4,2.2,60,0.00,,,0.00,WUHU216HW,2013-12-25 03:08:00,
2013-12-24 22:13:00,28.8,16.8,30.43,NNE,21,1.9,2.5,60,0.00,,,0.00,WUHU216HW,2013-12-25 03:13:00,
2013-12-24 22:18:00,28.4,16.4,30.44,East,90,0.7,2.5,60,0.00,,,0.00,WUHU216HW,2013-12-25 03:18:00,
2013-12-24 22:23:00,28.4,16.4,30.43,NNE,15,0.9,1.1,60,0.00,,,0.00,WUHU216HW,2013-12-25 03:23:00,
2013-12-24 22:28:00,28.3,16.2,30.44,ESE,113,0.7,1.1,60,0.00,,,0.00,WUHU216HW,2013-12-25 03:28:00,
2013-12-24 22:33:00,27.9,15.8,30.44,NNE,23,0.7,0.7,60,0.00,,,0.00,WUHU216HW,2013-12-25 03:33:00,
2013-12-24 22:38:00,27.9,15.8,30.44,NNW,338,2.0,2.0,60,0.00,,,0.00,WUHU216HW,2013-12-25 03:38:00,
2013-12-24 22:43:00,27.9,15.8,30.44,NNW,338,0.7,2.0,60,0.00,,,0.00,WUHU216HW,2013-12-25 03:43:00,
2013-12-24 22:48:00,28.3,16.2,30.44,East,90,0.9,2.0,60,0.00,,,0.00,WUHU216HW,2013-12-25 03:48:00,
2013-12-24 22:53:00,28.1,16.0,30.44,East,90,0.9,0.9,60,0.00,,,0.00,WUHU216HW,2013-12-25 03:53:00,
2013-12-24 22:59:00,27.7,15.7,30.44,ENE,68,1.8,1.8,60,0.00,,,0.00,WUHU216HW,2013-12-25 03:59:00,
2013-12-24 23:04:00,27.7,15.7,30.44,NNW,338,1.1,1.8,60,0.00,,,0.00,WUHU216HW,2013-12-25 04:04:00,
2013-12-24 23:09:00,27.7,15.7,30.45,NNE,23,1.1,1.8,60,0.00,,,0.00,WUHU216HW,2013-12-25 04:09:00,
2013-12-24 23:14:00,27.5,15.5,30.45,North,0,0.7,1.1,60,0.00,,,0.00,WUHU216HW,2013-12-25 04:14:00,
2013-12-24 23:19:00,27.5,15.5,30.44,East,90,0.0,1.1,60,0.00,,,0.00,WUHU216HW,2013-12-25 04:19:00,
2013-12-24 23:24:00,27.4,15.3,30.44,NW,311,0.4,0.7,60,0.00,,,0.00,WUHU216HW,2013-12-25 04:24:00,
2013-12-24 23:29:00,27.2,15.5,30.44,NNW,338,0.7,0.7,61,0.00,,,0.00,WUHU216HW,2013-12-25 04:29:00,
2013-12-24 23:34:00,27.2,15.1,30.45,NW,315,0.4,0.7,60,0.00,,,0.00,WUHU216HW,2013-12-25 04:34:00,
2013-12-24 23:39:00,27.0,15.3,30.44,NNW,338,0.4,0.7,61,0.00,,,0.00,WUHU216HW,2013-12-25 04:39:00,
2013-12-24 23:44:00,27.0,14.9,30.45,SE,145,1.1,2.0,60,0.00,,,0.00,WUHU216HW,2013-12-25 04:44:00,
2013-12-24 23:49:00,27.0,14.9,30.44,NNW,338,0.7,2.0,60,0.00,,,0.00,WUHU216HW,2013-12-25 04:49:00,
2013-12-24 23:54:00,27.0,14.9,30.45,NE,45,0.9,0.9,60,0.00,,,0.00,WUHU216HW,2013-12-25 04:54:00,
2013-12-24 23:59:00,26.8,14.8,30.45,NNE,23,0.9,0.9,60,0.00,,,0.00,WUHU216HW,2013-12-25 04:59:00,